TimePDT,TemperatureF,Dew PointF,Humidity,Sea Level PressureIn,VisibilityMPH,Wind Direction,Wind SpeedMPH,Gust SpeedMPH,PrecipitationIn,Events,Conditions,WindDirDegrees,DateUTC
12:53 AM,46.4,37.4,71,29.84,10.0,East,8.1,-,N/A,,Scattered Clouds,90,2012-11-01 07:53:00
1:53 AM,42.1,35.1,76,29.83,10.0,East,8.1,-,N/A,,Clear,90,2012-11-01 08:53:00
2:53 AM,44.1,35.1,71,29.85,10.0,East,9.2,-,N/A,,Clear,100,2012-11-01 09:53:00
3:53 AM,44.1,34.0,68,29.86,10.0,South,4.6,-,N/A,,Clear,170,2012-11-01 10:53:00
4:53 AM,46.9,32.0,56,29.87,10.0,South,4.6,-,N/A,,Clear,180,2012-11-01 11:53:00
5:53 AM,43.0,34.0,71,29.88,10.0,SSE,11.5,-,N/A,,Mostly Cloudy,150,2012-11-01 12:53:00
6:53 AM,46.0,34.0,63,29.88,10.0,SSW,11.5,-,N/A,,Overcast,200,2012-11-01 13:53:00
7:53 AM,46.9,33.1,59,29.89,10.0,SSE,8.1,18.4,N/A,,Overcast,150,2012-11-01 14:53:00
8:53 AM,42.1,35.1,76,29.92,10.0,ESE,4.6,-,N/A,,Overcast,110,2012-11-01 15:53:00
9:53 AM,44.1,36.0,73,29.94,10.0,Calm,Calm,-,N/A,,Mostly Cloudy,0,2012-11-01 16:53:00
10:53 AM,48.0,37.9,68,29.95,10.0,South,11.5,18.4,0.00,Rain,Light Rain,180,2012-11-01 17:53:00
11:53 AM,52.0,34.0,50,29.94,10.0,SW,19.6,28.8,0.00,,Partly Cloudy,220,2012-11-01 18:53:00
12:53 PM,54.0,34.0,47,29.93,10.0,South,20.7,26.5,N/A,,Scattered Clouds,190,2012-11-01 19:53:00
1:53 PM,55.0,34.0,45,29.93,10.0,South,18.4,-,N/A,,Clear,190,2012-11-01 20:53:00
2:53 PM,53.1,36.0,52,29.95,10.0,SSW,17.3,26.5,N/A,,Mostly Cloudy,200,2012-11-01 21:53:00
3:53 PM,55.0,35.1,47,29.95,10.0,SSW,11.5,-,N/A,,Clear,210,2012-11-01 22:53:00
4:53 PM,51.1,36.0,56,29.97,10.0,WSW,8.1,-,N/A,,Mostly Cloudy,250,2012-11-01 23:53:00
5:53 PM,48.0,36.0,63,30.01,10.0,North,4.6,-,N/A,,Mostly Cloudy,350,2012-11-02 00:53:00
6:53 PM,42.1,35.1,76,30.02,10.0,SSE,5.8,-,N/A,,Clear,150,2012-11-02 01:53:00
7:53 PM,41.0,35.1,79,30.04,10.0,Calm,Calm,-,N/A,,Mostly Cloudy,0,2012-11-02 02:53:00
8:53 PM,37.0,33.1,86,30.08,10.0,SE,3.5,-,N/A,,Clear,140,2012-11-02 03:53:00
9:53 PM,34.0,32.0,92,30.11,10.0,Calm,Calm,-,N/A,,Scattered Clouds,0,2012-11-02 04:53:00
10:53 PM,33.1,32.0,96,30.12,10.0,West,5.8,-,N/A,,Partly Cloudy,270,2012-11-02 05:53:00
11:53 PM,30.0,28.9,96,30.12,10.0,Calm,Calm,-,N/A,,Clear,0,2012-11-02 06:53:00